createdAt,value
2022-10-01T00:04:59.473Z,1.90
2022-10-01T00:10:02.995Z,1.47
2022-10-01T00:15:10.691Z,1.90
2022-10-01T00:20:17.062Z,1.55
2022-10-01T00:25:20.621Z,1.67
2022-10-01T00:30:25.775Z,1.37
2022-10-01T00:35:29.313Z,1.20
2022-10-01T00:40:32.859Z,1.47
2022-10-01T00:45:38.165Z,1.47
2022-10-01T00:50:41.771Z,1.20
2022-10-01T00:55:47.191Z,1.10
2022-10-01T01:00:54.830Z,1.20
2022-10-01T01:05:58.356Z,1.00
2022-10-01T01:11:09.569Z,1.17
2022-10-01T01:16:20.911Z,1.10
2022-10-01T01:21:30.018Z,2.75
2022-10-01T01:26:46.805Z,3.22
2022-10-01T01:31:54.448Z,3.00
2022-10-01T01:37:02.282Z,3.22
2022-10-01T01:42:10.046Z,3.50
2022-10-01T01:47:15.973Z,2.70
2022-10-01T01:52:19.785Z,2.80
2022-10-01T01:57:23.512Z,3.15
2022-10-01T02:02:33.492Z,2.95
2022-10-01T02:08:04.359Z,2.45
2022-10-01T02:13:20.083Z,2.70
2022-10-01T02:18:30.546Z,2.38
2022-10-01T02:23:40.269Z,2.50
2022-10-01T02:28:46.489Z,2.80
2022-10-01T02:33:54.361Z,2.80
2022-10-01T02:39:00.100Z,2.88
2022-10-01T02:44:09.231Z,3.25
2022-10-01T02:49:15.748Z,3.10
2022-10-01T02:54:26.584Z,2.70
2022-10-01T02:59:30.179Z,2.90
2022-10-01T03:04:36.070Z,2.70
2022-10-01T03:09:39.576Z,2.67
2022-10-01T03:14:43.286Z,2.40
2022-10-01T03:19:48.461Z,2.38
2022-10-01T03:24:53.020Z,2.40
2022-10-01T03:29:56.587Z,2.50
2022-10-01T03:35:02.700Z,2.53
2022-10-01T03:40:07.373Z,2.53
2022-10-01T03:45:11.444Z,2.90
2022-10-01T03:50:16.863Z,2.55
2022-10-01T03:55:20.426Z,2.60
2022-10-01T04:00:23.977Z,2.65
2022-10-01T04:05:29.156Z,2.70
2022-10-01T04:10:32.734Z,2.45
2022-10-01T04:15:36.648Z,2.40
2022-10-01T04:20:43.092Z,2.88
2022-10-01T04:25:46.680Z,2.63
2022-10-01T04:30:50.234Z,2.75
2022-10-01T04:35:55.410Z,2.60
2022-10-01T04:40:58.973Z,2.60
2022-10-01T04:46:02.570Z,2.50
2022-10-01T04:51:09.078Z,2.05
2022-10-01T04:56:12.622Z,1.90
2022-10-01T05:01:16.331Z,2.33
2022-10-01T05:06:21.572Z,2.40
2022-10-01T05:11:25.134Z,1.63
2022-10-01T05:16:28.741Z,1.75
2022-10-01T05:21:35.180Z,2.00
2022-10-01T05:26:38.901Z,2.30
2022-10-01T05:31:42.461Z,2.40
2022-10-01T05:36:47.680Z,2.03
2022-10-01T05:41:51.246Z,2.15
2022-10-01T05:46:54.857Z,2.22
2022-10-01T05:52:01.256Z,2.15
2022-10-01T05:57:06.021Z,2.15
2022-10-01T06:02:10.819Z,2.20
2022-10-01T06:07:16.043Z,2.23
2022-10-01T06:12:19.993Z,2.38
2022-10-01T06:17:23.711Z,2.08
2022-10-01T06:22:28.877Z,2.30
2022-10-01T06:27:32.421Z,2.08
2022-10-01T06:32:36.028Z,2.28
2022-10-01T06:37:41.286Z,2.38
2022-10-01T06:42:50.946Z,2.10
2022-10-01T06:47:56.634Z,2.35
2022-10-01T06:53:02.328Z,2.25
2022-10-01T07:03:12.706Z,2.08
2022-10-01T07:08:17.975Z,2.10
2022-10-01T07:13:21.498Z,2.45
2022-10-01T07:18:25.099Z,2.00
2022-10-01T07:23:30.982Z,2.30
2022-10-01T07:28:34.533Z,2.13
2022-10-01T07:33:38.090Z,2.38
2022-10-01T07:38:43.387Z,2.17
2022-10-01T07:43:47.834Z,1.90
2022-10-01T07:48:51.400Z,2.20
2022-10-01T07:53:56.877Z,2.20
2022-10-01T07:59:00.609Z,1.90
2022-10-01T08:04:05.428Z,2.22
2022-10-01T08:09:10.582Z,1.98
2022-10-01T08:14:14.231Z,2.00
2022-10-01T08:19:40.108Z,2.50
2022-10-01T08:24:45.277Z,2.35
2022-10-01T08:29:48.784Z,2.00
2022-10-01T08:34:56.415Z,2.20
2022-10-01T08:40:02.191Z,2.20
2022-10-01T08:45:12.212Z,1.80
2022-10-01T08:50:29.349Z,1.85
2022-10-01T08:55:37.468Z,1.60
2022-10-01T09:00:45.722Z,2.10
2022-10-01T09:06:04.060Z,1.60
2022-10-01T09:11:18.228Z,1.50
2022-10-01T09:16:30.774Z,1.70
2022-10-01T09:21:51.473Z,1.52
2022-10-01T09:26:56.826Z,1.60
2022-10-01T09:32:02.773Z,1.50
2022-10-01T09:37:16.286Z,1.20
2022-10-01T09:42:25.678Z,1.50
2022-10-01T09:47:29.261Z,1.42
2022-10-01T09:52:35.727Z,1.75
2022-10-01T09:57:45.568Z,1.40
2022-10-01T10:02:50.801Z,1.30
2022-10-01T10:07:57.993Z,1.15
2022-10-01T10:13:05.950Z,1.27
2022-10-01T10:18:13.744Z,1.17
2022-10-01T10:23:18.634Z,1.25
2022-10-01T10:28:25.137Z,1.38
2022-10-01T10:33:28.803Z,1.27
2022-10-01T10:38:35.322Z,1.27
2022-10-01T10:43:40.565Z,1.33
2022-10-01T10:48:44.698Z,1.00
2022-10-01T10:53:48.348Z,0.98
2022-10-01T10:58:53.792Z,1.10
2022-10-01T11:04:01.111Z,1.40
2022-10-01T11:09:11.191Z,1.20
2022-10-01T11:14:29.171Z,1.20
2022-10-01T11:19:45.938Z,0.98
2022-10-01T11:25:09.724Z,1.00
2022-10-01T11:30:19.710Z,1.20
2022-10-01T11:35:42.741Z,1.20
2022-10-01T11:40:50.679Z,1.40
2022-10-01T11:46:00.997Z,1.00
2022-10-01T11:51:10.654Z,1.02
2022-10-01T11:56:18.337Z,0.98
2022-10-01T12:01:30.931Z,1.20
2022-10-01T12:06:40.757Z,1.10
2022-10-01T12:11:52.672Z,1.20
2022-10-01T12:17:05.225Z,1.10
2022-10-01T12:22:14.845Z,1.00
2022-10-01T12:27:36.206Z,1.25
2022-10-01T12:33:04.665Z,1.20
2022-10-01T12:38:21.016Z,1.40
2022-10-01T12:43:48.598Z,1.27
2022-10-01T12:49:01.996Z,1.45
2022-10-01T12:54:13.886Z,1.45
2022-10-01T12:59:36.698Z,1.40
2022-10-01T13:05:02.296Z,1.42
2022-10-01T13:10:19.700Z,1.50
2022-10-01T13:15:26.429Z,1.67
2022-10-01T13:20:39.345Z,1.60
2022-10-01T13:26:01.177Z,1.60
2022-10-01T13:31:13.641Z,1.90
2022-10-01T13:36:30.180Z,2.35
2022-10-01T13:41:35.233Z,1.95
2022-10-01T13:46:51.454Z,1.90
2022-10-01T13:51:57.579Z,2.10
2022-10-01T13:57:09.284Z,2.30
2022-10-01T14:02:37.487Z,2.20
2022-10-01T14:07:46.316Z,2.22
2022-10-01T14:12:50.883Z,2.25
2022-10-01T14:17:55.910Z,2.03
2022-10-01T14:23:11.606Z,2.15
2022-10-01T14:28:32.494Z,2.43
2022-10-01T14:34:03.893Z,2.38
2022-10-01T14:39:16.537Z,2.38
2022-10-01T14:44:25.939Z,2.20
2022-10-01T14:49:30.715Z,2.13
2022-10-01T14:54:44.401Z,1.95
2022-10-01T14:59:49.560Z,2.30
2022-10-01T15:04:55.243Z,2.20
2022-10-01T15:10:09.401Z,2.38
2022-10-01T15:15:25.499Z,2.53
2022-10-01T15:20:29.225Z,2.33
2022-10-01T15:25:34.535Z,2.20
2022-10-01T15:30:38.164Z,2.03
2022-10-01T15:35:42.436Z,1.60
2022-10-01T15:40:53.775Z,1.80
2022-10-01T15:46:18.255Z,1.60
2022-10-01T15:51:26.486Z,1.52
2022-10-01T15:56:32.209Z,1.73
2022-10-01T16:01:40.922Z,1.60
2022-10-01T16:06:47.422Z,1.40
2022-10-01T16:11:57.352Z,1.60
2022-10-01T16:17:31.941Z,1.48
2022-10-01T16:22:36.620Z,1.60
2022-10-01T16:27:47.852Z,1.55
2022-10-01T16:32:51.402Z,1.40
2022-10-01T16:37:56.437Z,1.63
2022-10-01T16:43:03.623Z,1.60
2022-10-01T16:48:13.263Z,2.17
2022-10-01T16:53:19.078Z,1.80
2022-10-01T17:03:27.066Z,1.90
2022-10-01T17:08:30.619Z,1.88
2022-10-01T17:13:36.201Z,1.70
2022-10-01T17:18:39.751Z,2.20
2022-10-01T17:23:43.346Z,2.05
2022-10-01T17:28:48.578Z,2.15
2022-10-01T17:33:52.101Z,1.75
2022-10-01T17:38:55.661Z,2.63
2022-10-01T17:44:01.014Z,2.10
2022-10-01T17:49:04.913Z,1.98
2022-10-01T17:54:08.448Z,2.50
2022-10-01T17:59:13.645Z,2.10
2022-10-01T18:04:17.201Z,2.10
2022-10-01T18:09:21.386Z,2.20
2022-10-01T18:14:26.646Z,2.25
2022-10-01T18:24:53.811Z,2.00
2022-10-01T18:29:59.108Z,1.90
2022-10-01T18:35:04.144Z,1.90
2022-10-01T18:40:13.173Z,2.10
2022-10-01T18:45:23.326Z,2.17
2022-10-01T18:50:36.808Z,2.17
2022-10-01T18:56:18.094Z,2.10
2022-10-01T19:01:31.623Z,1.90
2022-10-01T19:06:48.410Z,2.15
2022-10-01T19:12:04.023Z,2.10
2022-10-01T19:17:27.824Z,1.63
2022-10-01T19:22:41.386Z,2.10
2022-10-01T19:27:59.420Z,2.10
2022-10-01T19:33:09.002Z,2.05
2022-10-01T19:38:18.844Z,1.88
2022-10-01T19:43:30.011Z,1.83
2022-10-01T19:48:44.694Z,2.30
2022-10-01T19:53:51.101Z,2.20
2022-10-01T19:58:54.733Z,2.15
2022-10-01T20:04:03.342Z,2.33
2022-10-01T20:09:16.961Z,2.08
2022-10-01T20:14:30.063Z,2.45
2022-10-01T20:19:42.904Z,2.17
2022-10-01T20:24:56.110Z,2.10
2022-10-01T20:30:04.857Z,2.30
2022-10-01T20:35:25.761Z,2.40
2022-10-01T21:38:58.543Z,4.38
2022-10-01T21:44:44.278Z,2.30
2022-10-01T21:50:00.337Z,2.40
2022-10-01T21:55:30.104Z,3.10
2022-10-01T22:00:33.812Z,2.70
2022-10-01T22:05:44.221Z,2.20
2022-10-01T22:10:52.278Z,2.40
2022-10-01T22:16:01.210Z,2.47
2022-10-01T22:21:11.361Z,2.20
2022-10-01T22:26:18.989Z,2.33
2022-10-01T22:31:26.724Z,2.30
2022-10-01T22:36:36.118Z,2.47
2022-10-01T22:41:45.716Z,2.83
2022-10-01T22:47:17.503Z,2.40
2022-10-01T22:52:29.288Z,2.90
2022-10-01T22:58:04.231Z,3.10
2022-10-01T23:03:19.603Z,2.97
2022-10-01T23:13:40.599Z,4.05
2022-10-01T23:18:53.660Z,2.97
2022-10-01T23:24:09.441Z,3.05
2022-10-01T23:29:36.638Z,3.00
2022-10-01T23:34:51.829Z,3.33
2022-10-01T23:39:58.783Z,3.20
2022-10-01T23:45:24.024Z,3.38
2022-10-01T23:55:50.773Z,4.20
